createdAt,value
2023-08-22T00:14:40.020Z,1020.37
2023-08-22T00:43:47.015Z,1020.32
2023-08-22T01:12:50.787Z,1020.26
2023-08-22T01:41:54.158Z,1020.21
2023-08-22T02:10:44.070Z,1020.07
2023-08-22T02:39:52.190Z,1020.06
2023-08-22T03:09:06.349Z,1020.1
2023-08-22T03:38:04.965Z,1019.98
2023-08-22T04:07:03.858Z,1020.07
2023-08-22T04:36:24.839Z,1020.25
2023-08-22T05:05:36.577Z,1020.42
2023-08-22T05:34:19.122Z,1020.59
2023-08-22T06:02:43.511Z,1020.75
2023-08-22T06:31:15.171Z,1020.89
2023-08-22T06:59:42.601Z,1020.89
2023-08-22T07:28:08.406Z,1021.03
2023-08-22T07:56:26.485Z,1021.17
2023-08-22T08:24:53.500Z,1021.23
2023-08-22T08:53:17.984Z,1021.1
2023-08-22T09:21:42.729Z,1021.08
2023-08-22T09:50:07.265Z,1020.98
2023-08-22T10:19:10.248Z,1020.87
2023-08-22T10:48:15.138Z,1020.71
2023-08-22T11:17:09.617Z,1020.47
2023-08-22T11:46:14.499Z,1020.37
2023-08-22T12:15:18.148Z,1020.14
2023-08-22T12:44:20.857Z,1020.09
2023-08-22T13:13:27.087Z,1019.83
2023-08-22T13:42:33.776Z,1019.54
2023-08-22T14:11:34.277Z,1019.39
2023-08-22T14:40:45.808Z,1019.17
2023-08-22T15:09:55.657Z,1019.16
2023-08-22T15:39:00.260Z,1018.91
2023-08-22T16:08:04.776Z,1018.86
2023-08-22T16:37:12.101Z,1018.81
2023-08-22T17:06:10.139Z,1018.86
2023-08-22T17:35:18.076Z,1018.99
2023-08-22T18:04:27.886Z,1019.05
2023-08-22T18:33:30.942Z,1019.26
2023-08-22T19:02:29.371Z,1019.41
2023-08-22T19:31:32.178Z,1019.63
2023-08-22T20:00:30.132Z,1019.91
2023-08-22T20:29:36.313Z,1019.9
2023-08-22T20:58:35.310Z,1019.94
2023-08-22T21:27:38.568Z,1019.85
2023-08-22T21:56:33.425Z,1020.01
2023-08-22T22:25:29.607Z,1020.17
2023-08-22T22:53:47.706Z,1019.9
2023-08-22T23:22:11.905Z,1019.96
2023-08-22T23:51:18.286Z,1019.88
